Hanford, California
Current Conditions -  °F | °C
As of 7:53 PM on Friday 19 Dec 2014 (Local Time) from KHJO Reporting Station
Broken Clouds Broken Clouds  
Wind Chill: 52°   Ceiling: 12000
Heat Index: 52°   Visibility: 8mi
Dew Point: 49°   Wind: 3mph
Humidity: 89%   Direction: 60°ENE
Pressure: 30.21"   Gusts: NA
Location:  36.33°N, 119.64°W
Report Text: KHJO 200353Z AUTO 06003KT 8SM FEW055 SCT080 BKN120 11/09 A3021 RMK AO2 SLP232 T01110094
Loading
Personal Weather Stations






























Interactive Weather Map New forecast layout! Learn more

10-Day Weather Forecast

Advertisements
Track Severe Weather on mobile